createdAt,value
2019-04-26T00:02:24.097Z,43.70
2019-04-26T00:04:59.725Z,47.68
2019-04-26T00:07:34.633Z,50.38
2019-04-26T00:10:18.127Z,51.81
2019-04-26T00:13:02.050Z,53.14
2019-04-26T00:15:57.563Z,53.76
2019-04-26T00:18:32.507Z,54.43
2019-04-26T00:21:07.720Z,55.30
2019-04-26T00:23:43.978Z,55.76
2019-04-26T00:26:20.114Z,56.45
2019-04-26T00:28:54.143Z,56.59
2019-04-26T00:31:27.863Z,57.41
2019-04-26T00:34:01.882Z,57.54
2019-04-26T00:36:36.667Z,58.13
2019-04-26T00:39:10.518Z,58.39
2019-04-26T00:41:46.559Z,58.27
2019-04-26T00:44:20.900Z,58.25
2019-04-26T00:46:59.157Z,57.75
2019-04-26T00:49:43.408Z,58.26
2019-04-26T00:52:12.998Z,58.36
2019-04-26T00:54:48.707Z,58.82
2019-04-26T00:57:25.195Z,59.47
2019-04-26T01:00:00.954Z,59.67
2019-04-26T01:02:49.276Z,60.15
2019-04-26T01:05:25.159Z,60.87
2019-04-26T01:07:59.361Z,60.90
2019-04-26T01:10:33.934Z,61.22
2019-04-26T01:13:10.970Z,61.24
2019-04-26T01:15:44.665Z,61.09
2019-04-26T01:18:18.469Z,61.31
2019-04-26T01:20:56.987Z,61.68
2019-04-26T01:23:34.406Z,61.66
2019-04-26T01:26:17.953Z,61.66
2019-04-26T01:29:07.684Z,61.72
2019-04-26T01:31:53.912Z,61.78
2019-04-26T01:34:28.259Z,62.26
2019-04-26T01:37:04.150Z,62.57
2019-04-26T01:39:40.509Z,62.55
2019-04-26T01:42:35.304Z,62.27
2019-04-26T01:45:34.319Z,61.92
2019-04-26T01:48:34.289Z,63.04
2019-04-26T01:51:09.177Z,62.70
2019-04-26T01:53:45.032Z,63.21
2019-04-26T01:56:23.467Z,63.04
2019-04-26T01:58:57.401Z,63.84
2019-04-26T02:01:56.480Z,63.83
2019-04-26T02:04:33.375Z,64.21
2019-04-26T02:07:07.579Z,64.26
2019-04-26T02:09:44.251Z,64.45
2019-04-26T02:12:18.058Z,64.44
2019-04-26T02:14:54.218Z,64.19
2019-04-26T02:17:27.971Z,64.72
2019-04-26T02:20:02.214Z,65.23
2019-04-26T02:22:51.199Z,65.07
2019-04-26T02:25:25.975Z,65.93
2019-04-26T02:27:59.838Z,65.91
2019-04-26T02:30:35.367Z,66.53
2019-04-26T02:33:09.261Z,66.01
2019-04-26T02:35:44.398Z,66.69
2019-04-26T02:38:20.075Z,67.11
2019-04-26T02:40:54.846Z,67.12
2019-04-26T02:43:31.211Z,67.22
2019-04-26T02:46:21.363Z,67.80
2019-04-26T02:49:21.897Z,67.88
2019-04-26T02:52:15.438Z,68.12
2019-04-26T02:55:03.498Z,68.80
2019-04-26T02:57:54.325Z,68.71
2019-04-26T03:00:30.207Z,69.02
2019-04-26T03:03:10.613Z,68.71
2019-04-26T03:05:47.712Z,68.51
2019-04-26T03:08:25.787Z,68.97
2019-04-26T03:11:17.850Z,68.56
2019-04-26T03:14:20.259Z,68.55
2019-04-26T03:17:15.909Z,69.05
2019-04-26T03:20:02.987Z,69.59
2019-04-26T03:23:57.023Z,69.99
2019-04-26T03:27:15.131Z,70.27
2019-04-26T03:30:21.067Z,70.64
2019-04-26T03:33:54.292Z,70.71
2019-04-26T03:37:27.808Z,71.00
2019-04-26T03:40:47.868Z,71.40
2019-04-26T03:43:55.772Z,71.70
2019-04-26T03:46:46.752Z,71.99
2019-04-26T03:49:49.011Z,71.74
2019-04-26T03:52:55.143Z,72.73
2019-04-26T03:56:38.027Z,72.88
2019-04-26T04:00:18.133Z,73.14
2019-04-26T04:03:14.058Z,73.75
2019-04-26T04:05:52.179Z,74.23
2019-04-26T04:08:39.843Z,73.63
2019-04-26T04:11:19.358Z,73.11
2019-04-26T04:14:06.748Z,73.39
2019-04-26T04:17:43.142Z,74.12
2019-04-26T04:21:11.263Z,73.46
2019-04-26T04:24:08.412Z,73.19
2019-04-26T04:27:41.841Z,72.81
2019-04-26T04:31:01.705Z,72.40
2019-04-26T04:34:07.641Z,72.39
2019-04-26T04:36:54.751Z,72.29
2019-04-26T04:40:37.904Z,71.66
2019-04-26T04:43:34.914Z,70.08
2019-04-26T04:46:43.880Z,65.85
2019-04-26T04:49:50.461Z,63.01
2019-04-26T04:53:04.886Z,62.30
2019-04-26T04:56:10.228Z,61.37
2019-04-26T04:58:53.740Z,63.48
2019-04-26T05:02:50.668Z,64.66
2019-04-26T05:06:07.311Z,63.21
2019-04-26T05:08:56.695Z,63.53
2019-04-26T05:12:19.946Z,64.41
2019-04-26T05:16:03.224Z,64.67
2019-04-26T05:19:28.689Z,57.93
2019-04-26T05:23:06.582Z,59.20
2019-04-26T05:27:01.030Z,61.69
2019-04-26T05:30:31.880Z,62.95
2019-04-26T05:33:36.340Z,61.20
2019-04-26T05:36:52.758Z,56.07
2019-04-26T05:39:51.398Z,52.32
2019-04-26T05:43:34.283Z,51.17
2019-04-26T05:47:11.097Z,49.39
2019-04-26T05:50:58.144Z,47.81
2019-04-26T05:54:30.776Z,47.53
2019-04-26T05:57:45.926Z,45.45
2019-04-26T06:00:47.868Z,44.80
2019-04-26T06:04:25.115Z,47.86
2019-04-26T06:07:30.547Z,46.16
2019-04-26T06:10:33.928Z,45.59
2019-04-26T06:14:19.102Z,44.66
2019-04-26T06:17:59.726Z,45.81
2019-04-26T06:21:07.256Z,44.11
2019-04-26T06:24:31.223Z,46.09
2019-04-26T06:27:54.563Z,48.31
2019-04-26T06:30:59.389Z,46.73
2019-04-26T06:33:49.956Z,43.31
2019-04-26T06:36:37.699Z,43.77
2019-04-26T06:39:32.873Z,45.04
2019-04-26T06:42:54.879Z,44.86
2019-04-26T06:46:53.436Z,46.75
2019-04-26T06:50:15.097Z,44.53
2019-04-26T06:53:02.047Z,42.91
2019-04-26T06:55:50.903Z,42.74
2019-04-26T06:59:21.825Z,41.11
2019-04-26T07:02:09.823Z,41.86
2019-04-26T07:05:24.180Z,39.75
2019-04-26T07:08:57.807Z,40.14
2019-04-26T07:12:44.419Z,44.35
2019-04-26T07:16:01.357Z,46.06
2019-04-26T07:19:54.943Z,44.31
2019-04-26T07:23:33.020Z,45.20
2019-04-26T07:26:58.608Z,50.50
2019-04-26T07:30:26.013Z,52.15
2019-04-26T07:33:59.409Z,52.72
2019-04-26T07:37:47.312Z,50.43
2019-04-26T07:41:42.717Z,45.96
2019-04-26T07:45:05.484Z,44.08
2019-04-26T07:48:55.549Z,49.30
2019-04-26T07:52:21.237Z,46.91
2019-04-26T07:55:54.978Z,43.75
2019-04-26T07:59:30.834Z,42.13
2019-04-26T08:02:29.633Z,41.44
2019-04-26T08:05:19.704Z,42.24
2019-04-26T08:08:00.768Z,44.00
2019-04-26T08:10:40.536Z,45.18
2019-04-26T08:13:19.541Z,47.33
2019-04-26T08:16:20.474Z,46.13
2019-04-26T08:19:02.492Z,44.71
2019-04-26T08:21:47.931Z,46.59
2019-04-26T08:24:27.915Z,46.47
2019-04-26T08:27:18.888Z,45.72
2019-04-26T08:29:52.668Z,46.60
2019-04-26T08:32:33.382Z,48.86
2019-04-26T08:35:21.745Z,48.83
2019-04-26T08:37:59.605Z,50.28
2019-04-26T08:40:36.410Z,50.58
2019-04-26T08:43:45.942Z,51.60
2019-04-26T08:46:41.918Z,51.78
2019-04-26T08:49:39.172Z,51.45
2019-04-26T08:52:14.974Z,49.62
2019-04-26T08:54:55.368Z,48.60
2019-04-26T08:57:35.018Z,47.99
2019-04-26T09:00:27.361Z,47.77
2019-04-26T09:03:12.060Z,46.70
2019-04-26T09:06:06.391Z,46.98
2019-04-26T09:08:45.111Z,48.55
2019-04-26T09:11:26.458Z,49.78
2019-04-26T09:14:02.352Z,48.25
2019-04-26T09:16:36.437Z,48.96
2019-04-26T09:19:10.384Z,48.72
2019-04-26T09:21:59.095Z,49.36
2019-04-26T09:24:41.427Z,49.85
2019-04-26T09:27:35.208Z,48.61
2019-04-26T09:30:34.780Z,48.32
2019-04-26T09:33:17.466Z,49.30
2019-04-26T09:35:52.543Z,49.42
2019-04-26T09:38:26.291Z,50.54
2019-04-26T09:41:00.617Z,51.60
2019-04-26T09:43:47.824Z,50.28
2019-04-26T09:46:40.752Z,48.88
2019-04-26T09:49:29.498Z,49.83
2019-04-26T09:52:06.332Z,49.77
2019-04-26T09:54:41.191Z,51.02
2019-04-26T09:57:15.212Z,51.22
2019-04-26T10:03:27.947Z,51.31
2019-04-26T10:06:04.375Z,52.52
2019-04-26T10:08:38.187Z,53.42
2019-04-26T10:11:17.495Z,54.15
2019-04-26T10:13:58.198Z,54.90
2019-04-26T10:16:37.692Z,54.80
2019-04-26T10:19:17.366Z,55.47
2019-04-26T10:21:53.545Z,55.28
2019-04-26T10:24:27.344Z,55.68
2019-04-26T10:27:03.434Z,54.89
2019-04-26T10:29:36.887Z,55.01
2019-04-26T10:32:11.003Z,55.58
2019-04-26T10:34:47.250Z,54.61
2019-04-26T10:37:21.080Z,54.47
2019-04-26T10:40:13.090Z,56.02
2019-04-26T10:42:47.530Z,55.92
2019-04-26T10:45:23.953Z,56.69
2019-04-26T10:48:01.197Z,57.55
2019-04-26T10:50:35.209Z,57.18
2019-04-26T10:53:20.476Z,57.45
2019-04-26T10:56:11.693Z,56.82
2019-04-26T10:59:09.814Z,56.71
2019-04-26T11:01:45.410Z,56.18
2019-04-26T11:04:19.664Z,57.16
2019-04-26T11:06:53.794Z,56.62
2019-04-26T11:09:27.803Z,57.11
2019-04-26T11:12:01.753Z,57.81
2019-04-26T11:14:35.460Z,58.57
2019-04-26T11:17:11.523Z,58.34
2019-04-26T11:19:46.866Z,58.49
2019-04-26T11:22:28.929Z,57.48
2019-04-26T11:24:56.204Z,57.45
2019-04-26T11:27:31.727Z,56.80
2019-04-26T11:30:11.582Z,57.09
2019-04-26T11:32:45.724Z,57.48
2019-04-26T11:35:21.074Z,57.52
2019-04-26T11:37:56.638Z,58.57
2019-04-26T11:40:31.207Z,58.07
2019-04-26T11:43:05.381Z,58.38
2019-04-26T11:45:40.109Z,58.58
2019-04-26T11:48:15.328Z,58.22
2019-04-26T11:50:54.124Z,58.20
2019-04-26T11:53:27.940Z,58.64
2019-04-26T11:56:04.519Z,58.86
2019-04-26T11:58:37.721Z,58.22
2019-04-26T12:01:13.075Z,58.84
2019-04-26T12:04:07.121Z,58.47
2019-04-26T12:07:04.812Z,58.42
2019-04-26T12:09:42.213Z,58.82
2019-04-26T12:12:15.891Z,58.95
2019-04-26T12:14:49.849Z,58.90
2019-04-26T12:17:27.020Z,57.98
2019-04-26T12:20:01.981Z,57.97
2019-04-26T12:22:39.396Z,57.48
2019-04-26T12:25:13.329Z,57.92
2019-04-26T12:27:47.451Z,57.62
2019-04-26T12:30:26.438Z,58.03
2019-04-26T12:32:57.925Z,56.88
2019-04-26T12:35:33.871Z,57.42
2019-04-26T12:38:07.682Z,57.41
2019-04-26T12:40:42.299Z,57.41
2019-04-26T12:43:20.189Z,56.70
2019-04-26T12:46:32.200Z,56.31
2019-04-26T12:49:06.412Z,55.67
2019-04-26T12:51:42.705Z,53.72
2019-04-26T12:54:15.649Z,54.03
2019-04-26T12:56:49.462Z,54.56
2019-04-26T12:59:26.541Z,54.17
2019-04-26T13:02:05.825Z,53.87
2019-04-26T13:04:40.537Z,53.93
2019-04-26T13:07:23.878Z,54.12
2019-04-26T13:10:15.763Z,53.80
2019-04-26T13:13:06.356Z,53.55
2019-04-26T13:16:15.670Z,53.70
2019-04-26T13:18:51.657Z,53.23
2019-04-26T13:21:25.539Z,53.27
2019-04-26T13:24:04.319Z,53.67
2019-04-26T13:26:36.441Z,54.22
2019-04-26T13:29:10.533Z,53.96
2019-04-26T13:31:44.577Z,55.51
2019-04-26T13:34:19.371Z,56.11
2019-04-26T13:36:53.941Z,56.29
2019-04-26T13:39:28.038Z,56.77
2019-04-26T13:42:06.685Z,57.08
2019-04-26T13:45:00.632Z,57.05
2019-04-26T13:48:03.618Z,59.51
2019-04-26T13:50:44.779Z,62.50
2019-04-26T13:53:22.227Z,64.21
2019-04-26T13:55:58.170Z,65.25
2019-04-26T13:58:30.121Z,64.57
2019-04-26T14:01:05.614Z,64.76
2019-04-26T14:03:41.096Z,65.06
2019-04-26T14:06:18.267Z,65.32
2019-04-26T14:08:58.267Z,64.18
2019-04-26T14:11:34.180Z,64.12
2019-04-26T14:14:11.062Z,63.97
2019-04-26T14:16:45.799Z,64.40
2019-04-26T14:19:24.119Z,66.06
2019-04-26T14:21:58.622Z,67.67
2019-04-26T14:24:41.027Z,68.37
2019-04-26T14:27:24.042Z,69.34
2019-04-26T14:29:57.708Z,70.35
2019-04-26T14:32:31.547Z,70.58
2019-04-26T14:35:05.898Z,71.25
2019-04-26T14:37:40.142Z,71.23
2019-04-26T14:40:17.284Z,71.89
2019-04-26T14:42:50.484Z,71.59
2019-04-26T14:45:24.516Z,71.47
2019-04-26T14:48:00.275Z,71.76
2019-04-26T14:50:37.016Z,71.78
2019-04-26T14:53:11.048Z,70.96
2019-04-26T14:55:51.207Z,70.99
2019-04-26T14:58:23.897Z,71.54
2019-04-26T15:01:03.203Z,70.98
2019-04-26T15:03:51.488Z,70.80
2019-04-26T15:06:33.030Z,72.07
2019-04-26T15:09:17.998Z,71.85
2019-04-26T15:11:53.328Z,71.85
2019-04-26T15:14:20.634Z,70.74
2019-04-26T15:16:54.410Z,71.71
2019-04-26T15:19:28.640Z,73.29
2019-04-26T15:22:04.062Z,75.30
2019-04-26T15:24:40.023Z,76.72
2019-04-26T15:27:13.683Z,77.09
2019-04-26T15:29:47.510Z,77.28
2019-04-26T15:32:21.790Z,77.86
2019-04-26T15:34:58.581Z,77.38
2019-04-26T15:37:32.241Z,77.26
2019-04-26T15:40:27.414Z,77.48
2019-04-26T15:43:16.052Z,78.05
2019-04-26T15:46:14.795Z,77.60
2019-04-26T15:49:05.166Z,78.56
2019-04-26T15:51:42.648Z,79.29
2019-04-26T15:54:17.945Z,80.06
2019-04-26T15:56:55.305Z,80.00
2019-04-26T15:59:29.573Z,80.09
2019-04-26T16:02:03.622Z,80.11
2019-04-26T16:04:38.456Z,80.61
2019-04-26T16:07:16.661Z,81.04
2019-04-26T16:09:57.596Z,81.45
2019-04-26T16:12:32.072Z,81.07
2019-04-26T16:15:11.415Z,81.05
2019-04-26T16:17:43.267Z,80.40
2019-04-26T16:20:17.230Z,79.65
2019-04-26T16:22:53.380Z,80.60
2019-04-26T16:25:27.142Z,80.50
2019-04-26T16:28:18.814Z,80.85
2019-04-26T16:31:11.890Z,81.63
2019-04-26T16:33:47.154Z,82.06
2019-04-26T16:36:23.953Z,81.86
2019-04-26T16:38:58.079Z,82.29
2019-04-26T16:41:38.111Z,82.84
2019-04-26T16:44:13.023Z,83.27
2019-04-26T16:46:46.904Z,82.22
2019-04-26T16:49:28.893Z,83.37
2019-04-26T16:52:06.813Z,84.06
2019-04-26T16:54:38.607Z,84.46
2019-04-26T16:57:12.753Z,84.70
2019-04-26T16:59:53.551Z,85.27
2019-04-26T17:02:26.174Z,86.65
2019-04-26T17:05:04.611Z,86.52
2019-04-26T17:07:39.179Z,86.98
2019-04-26T17:10:09.391Z,87.25
2019-04-26T17:12:46.186Z,88.13
2019-04-26T17:15:21.014Z,87.93
2019-04-26T17:17:54.882Z,88.43
2019-04-26T17:20:29.681Z,89.32
2019-04-26T17:23:39.159Z,88.32
2019-04-26T17:26:36.564Z,88.66
2019-04-26T17:29:10.819Z,89.65
2019-04-26T17:31:44.857Z,89.89
2019-04-26T17:34:22.505Z,89.61
2019-04-26T17:36:55.254Z,89.78
2019-04-26T17:39:30.413Z,90.31
2019-04-26T17:42:04.991Z,89.91
2019-04-26T17:44:39.150Z,88.71
2019-04-26T17:47:20.273Z,88.23
2019-04-26T17:49:57.464Z,88.62
2019-04-26T17:52:36.126Z,89.12
2019-04-26T17:55:07.937Z,89.63
2019-04-26T17:57:48.410Z,89.70
2019-04-26T18:00:27.166Z,89.04
2019-04-26T18:03:01.793Z,89.17
2019-04-26T18:05:55.891Z,89.29
2019-04-26T18:08:33.585Z,89.53
2019-04-26T18:10:51.364Z,90.34
2019-04-26T18:13:26.385Z,90.46
2019-04-26T18:16:03.494Z,90.59
2019-04-26T18:19:05.628Z,91.82
2019-04-26T18:21:56.435Z,91.60
2019-04-26T18:24:32.303Z,91.01
2019-04-26T18:27:05.365Z,91.10
2019-04-26T18:29:39.485Z,91.79
2019-04-26T18:32:16.186Z,91.59
2019-04-26T18:34:50.534Z,91.78
2019-04-26T18:37:25.276Z,92.26
2019-04-26T18:40:02.036Z,92.44
2019-04-26T18:42:37.583Z,93.04
2019-04-26T18:45:14.088Z,93.37
2019-04-26T18:47:49.342Z,93.14
2019-04-26T18:50:24.246Z,93.12
2019-04-26T18:53:19.637Z,93.68
2019-04-26T18:55:53.623Z,93.65
2019-04-26T18:58:34.102Z,93.22
2019-04-26T19:01:07.255Z,93.62
2019-04-26T19:03:43.722Z,94.17
2019-04-26T19:06:28.665Z,94.03
2019-04-26T19:08:57.623Z,94.04
2019-04-26T19:11:32.419Z,93.83
2019-04-26T19:14:31.884Z,93.36
2019-04-26T19:17:31.777Z,92.68
2019-04-26T19:20:27.504Z,93.57
2019-04-26T19:23:05.687Z,93.47
2019-04-26T19:25:41.236Z,92.95
2019-04-26T19:28:23.641Z,93.40
2019-04-26T19:30:58.964Z,93.30
2019-04-26T19:33:32.810Z,93.39
2019-04-26T19:36:08.079Z,93.56
2019-04-26T19:38:49.935Z,93.86
2019-04-26T19:41:22.770Z,94.47
2019-04-26T19:43:57.702Z,94.68
2019-04-26T19:47:07.191Z,94.27
2019-04-26T19:50:03.092Z,94.32
2019-04-26T19:52:55.841Z,94.55
2019-04-26T19:55:51.850Z,95.07
2019-04-26T19:58:28.017Z,94.39
2019-04-26T20:01:04.384Z,94.05
2019-04-26T20:03:40.743Z,93.77
2019-04-26T20:06:18.834Z,93.32
2019-04-26T20:08:51.976Z,93.41
2019-04-26T20:11:26.678Z,93.73
2019-04-26T20:14:01.148Z,93.18
2019-04-26T20:16:40.847Z,92.63
2019-04-26T20:19:17.741Z,93.29
2019-04-26T20:21:51.176Z,93.02
2019-04-26T20:24:25.951Z,93.10
2019-04-26T20:27:01.444Z,93.20
2019-04-26T20:29:40.825Z,93.55
2019-04-26T20:32:23.873Z,93.81
2019-04-26T20:35:14.029Z,93.68
2019-04-26T20:37:48.679Z,94.59
2019-04-26T20:40:25.379Z,94.59
2019-04-26T20:43:03.350Z,94.10
2019-04-26T20:45:41.465Z,94.38
2019-04-26T20:48:13.243Z,94.28
2019-04-26T20:50:47.384Z,94.61
2019-04-26T20:53:22.550Z,94.27
2019-04-26T20:55:57.086Z,94.13
2019-04-26T20:58:32.370Z,94.57
2019-04-26T21:01:12.391Z,94.82
2019-04-26T21:03:46.161Z,94.89
2019-04-26T21:06:21.972Z,95.53
2019-04-26T21:08:59.175Z,95.97
2019-04-26T21:11:37.264Z,95.95
2019-04-26T21:14:08.831Z,96.19
2019-04-26T21:16:45.303Z,96.27
2019-04-26T21:19:19.192Z,96.02
2019-04-26T21:21:53.690Z,95.71
2019-04-26T21:24:29.750Z,95.58
2019-04-26T21:27:33.283Z,94.91
2019-04-26T21:30:29.440Z,95.32
2019-04-26T21:33:17.388Z,95.09
2019-04-26T21:36:16.068Z,94.54
2019-04-26T21:39:08.716Z,94.45
2019-04-26T21:41:45.181Z,95.42
2019-04-26T21:44:20.132Z,96.21
2019-04-26T21:46:58.639Z,97.11
2019-04-26T21:49:29.881Z,97.33
2019-04-26T21:52:03.913Z,97.64
2019-04-26T21:54:40.174Z,97.14
2019-04-26T21:57:14.046Z,97.18
2019-04-26T21:59:48.057Z,97.59
2019-04-26T22:02:25.385Z,97.74
2019-04-26T22:04:59.302Z,98.23
2019-04-26T22:07:34.961Z,98.73
2019-04-26T22:10:18.439Z,98.76
2019-04-26T22:12:53.921Z,98.95
2019-04-26T22:15:58.593Z,98.41
2019-04-26T22:19:03.832Z,97.97
2019-04-26T22:22:04.189Z,98.36
2019-04-26T22:24:39.475Z,97.86
2019-04-26T22:27:13.398Z,98.02
2019-04-26T22:29:51.814Z,98.10
2019-04-26T22:32:24.891Z,97.38
2019-04-26T22:34:58.553Z,97.54
2019-04-26T22:37:33.719Z,97.57
2019-04-26T22:40:10.581Z,97.53
2019-04-26T22:42:45.149Z,98.38
2019-04-26T22:45:39.480Z,99.45
2019-04-26T22:48:25.662Z,99.17
2019-04-26T22:51:04.479Z,98.93
2019-04-26T22:53:37.114Z,98.73
2019-04-26T22:56:11.073Z,98.06
2019-04-26T22:58:44.785Z,97.28
2019-04-26T23:01:18.742Z,97.34
2019-04-26T23:03:53.231Z,97.49
2019-04-26T23:06:27.995Z,97.18
2019-04-26T23:09:01.693Z,96.84
2019-04-26T23:11:35.509Z,97.49
2019-04-26T23:14:29.476Z,98.22
2019-04-26T23:17:50.050Z,98.66
2019-04-26T23:20:34.329Z,98.71
2019-04-26T23:23:08.612Z,98.52
2019-04-26T23:25:43.499Z,98.50
2019-04-26T23:28:17.252Z,98.97
2019-04-26T23:30:52.974Z,99.02
2019-04-26T23:33:27.516Z,98.98
2019-04-26T23:36:03.232Z,99.02
2019-04-26T23:38:37.745Z,99.28
2019-04-26T23:41:14.015Z,99.72
2019-04-26T23:43:47.017Z,99.87
2019-04-26T23:46:22.855Z,99.44
2019-04-26T23:48:59.077Z,99.31
2019-04-26T23:51:33.994Z,98.38
2019-04-26T23:54:07.809Z,98.27
2019-04-26T23:56:41.620Z,98.70
2019-04-26T23:59:20.922Z,98.46
